sensor_id;sensor_type;location;lat;lon;timestamp;P1;durP1;ratioP1;P2;durP2;ratioP2
7917;SDS011;4004;42.624;23.386;2023-04-25T00:00:50;6.00;;;4.60;;
7917;SDS011;4004;42.624;23.386;2023-04-25T00:03:18;4.73;;;4.17;;
7917;SDS011;4004;42.624;23.386;2023-04-25T00:05:46;5.03;;;4.63;;
7917;SDS011;4004;42.624;23.386;2023-04-25T00:08:14;4.87;;;4.47;;
7917;SDS011;4004;42.624;23.386;2023-04-25T00:10:41;4.43;;;4.03;;
7917;SDS011;4004;42.624;23.386;2023-04-25T00:13:07;5.17;;;4.67;;
7917;SDS011;4004;42.624;23.386;2023-04-25T00:15:36;8.00;;;5.13;;
7917;SDS011;4004;42.624;23.386;2023-04-25T00:18:03;6.50;;;5.00;;
7917;SDS011;4004;42.624;23.386;2023-04-25T00:20:31;6.97;;;5.77;;
7917;SDS011;4004;42.624;23.386;2023-04-25T00:22:58;5.80;;;5.30;;
7917;SDS011;4004;42.624;23.386;2023-04-25T00:25:26;6.37;;;5.23;;
7917;SDS011;4004;42.624;23.386;2023-04-25T00:27:52;7.33;;;6.07;;
7917;SDS011;4004;42.624;23.386;2023-04-25T00:30:19;8.57;;;7.13;;
7917;SDS011;4004;42.624;23.386;2023-04-25T00:32:46;8.33;;;7.53;;
7917;SDS011;4004;42.624;23.386;2023-04-25T00:35:13;7.47;;;6.77;;
7917;SDS011;4004;42.624;23.386;2023-04-25T00:37:40;8.37;;;7.67;;
7917;SDS011;4004;42.624;23.386;2023-04-25T00:40:07;7.80;;;7.17;;
7917;SDS011;4004;42.624;23.386;2023-04-25T00:42:36;9.03;;;8.17;;
7917;SDS011;4004;42.624;23.386;2023-04-25T00:45:04;8.57;;;7.87;;
7917;SDS011;4004;42.624;23.386;2023-04-25T00:47:33;9.37;;;8.57;;
7917;SDS011;4004;42.624;23.386;2023-04-25T00:49:59;8.67;;;7.80;;
7917;SDS011;4004;42.624;23.386;2023-04-25T00:52:26;9.83;;;8.90;;
7917;SDS011;4004;42.624;23.386;2023-04-25T00:54:53;9.57;;;8.77;;
7917;SDS011;4004;42.624;23.386;2023-04-25T00:57:20;9.33;;;8.43;;
7917;SDS011;4004;42.624;23.386;2023-04-25T00:59:48;8.70;;;7.87;;
7917;SDS011;4004;42.624;23.386;2023-04-25T01:02:17;7.93;;;7.20;;
7917;SDS011;4004;42.624;23.386;2023-04-25T01:04:45;8.50;;;7.73;;
7917;SDS011;4004;42.624;23.386;2023-04-25T01:07:13;9.23;;;8.33;;
7917;SDS011;4004;42.624;23.386;2023-04-25T01:09:41;8.50;;;7.70;;
7917;SDS011;4004;42.624;23.386;2023-04-25T01:12:08;8.37;;;7.67;;
7917;SDS011;4004;42.624;23.386;2023-04-25T01:14:34;8.77;;;7.97;;
7917;SDS011;4004;42.624;23.386;2023-04-25T01:17:03;9.00;;;8.20;;
7917;SDS011;4004;42.624;23.386;2023-04-25T01:19:30;10.00;;;9.13;;
7917;SDS011;4004;42.624;23.386;2023-04-25T01:21:58;10.33;;;9.37;;
7917;SDS011;4004;42.624;23.386;2023-04-25T01:24:25;9.30;;;8.50;;
7917;SDS011;4004;42.624;23.386;2023-04-25T01:26:52;9.13;;;8.27;;
7917;SDS011;4004;42.624;23.386;2023-04-25T01:29:21;8.47;;;7.67;;
7917;SDS011;4004;42.624;23.386;2023-04-25T01:31:49;6.90;;;6.30;;
7917;SDS011;4004;42.624;23.386;2023-04-25T01:34:18;6.73;;;6.23;;
7917;SDS011;4004;42.624;23.386;2023-04-25T01:36:45;6.43;;;5.70;;
7917;SDS011;4004;42.624;23.386;2023-04-25T01:39:14;6.63;;;5.90;;
7917;SDS011;4004;42.624;23.386;2023-04-25T01:41:41;6.50;;;6.00;;
7917;SDS011;4004;42.624;23.386;2023-04-25T01:44:08;6.73;;;5.97;;
7917;SDS011;4004;42.624;23.386;2023-04-25T01:46:35;7.07;;;5.70;;
7917;SDS011;4004;42.624;23.386;2023-04-25T01:49:02;6.37;;;5.77;;
7917;SDS011;4004;42.624;23.386;2023-04-25T01:51:29;6.57;;;5.83;;
7917;SDS011;4004;42.624;23.386;2023-04-25T01:53:56;6.00;;;5.50;;
7917;SDS011;4004;42.624;23.386;2023-04-25T01:56:25;8.10;;;5.90;;
7917;SDS011;4004;42.624;23.386;2023-04-25T01:58:56;6.03;;;5.50;;
7917;SDS011;4004;42.624;23.386;2023-04-25T02:01:23;5.93;;;5.43;;
7917;SDS011;4004;42.624;23.386;2023-04-25T02:03:50;6.97;;;6.37;;
7917;SDS011;4004;42.624;23.386;2023-04-25T02:06:17;6.93;;;5.43;;
7917;SDS011;4004;42.624;23.386;2023-04-25T02:08:43;6.60;;;6.00;;
7917;SDS011;4004;42.624;23.386;2023-04-25T02:11:10;6.63;;;6.03;;
7917;SDS011;4004;42.624;23.386;2023-04-25T02:13:38;6.83;;;6.30;;
7917;SDS011;4004;42.624;23.386;2023-04-25T02:16:05;6.80;;;6.10;;
7917;SDS011;4004;42.624;23.386;2023-04-25T02:18:32;6.73;;;6.23;;
7917;SDS011;4004;42.624;23.386;2023-04-25T02:20:59;6.50;;;5.93;;
7917;SDS011;4004;42.624;23.386;2023-04-25T02:23:26;7.80;;;7.10;;
7917;SDS011;4004;42.624;23.386;2023-04-25T02:25:54;7.33;;;6.73;;
7917;SDS011;4004;42.624;23.386;2023-04-25T02:28:23;7.20;;;6.60;;
7917;SDS011;4004;42.624;23.386;2023-04-25T02:30:52;8.13;;;7.43;;
7917;SDS011;4004;42.624;23.386;2023-04-25T02:33:18;7.50;;;6.80;;
7917;SDS011;4004;42.624;23.386;2023-04-25T02:35:46;8.10;;;7.40;;
7917;SDS011;4004;42.624;23.386;2023-04-25T02:38:13;8.43;;;7.10;;
7917;SDS011;4004;42.624;23.386;2023-04-25T02:40:39;7.27;;;6.67;;
7917;SDS011;4004;42.624;23.386;2023-04-25T02:43:06;8.00;;;7.30;;
7917;SDS011;4004;42.624;23.386;2023-04-25T02:45:33;7.80;;;7.10;;
7917;SDS011;4004;42.624;23.386;2023-04-25T02:48:01;7.67;;;6.97;;
7917;SDS011;4004;42.624;23.386;2023-04-25T02:50:28;8.30;;;7.60;;
7917;SDS011;4004;42.624;23.386;2023-04-25T02:52:55;7.40;;;6.70;;
7917;SDS011;4004;42.624;23.386;2023-04-25T02:55:22;8.37;;;7.67;;
7917;SDS011;4004;42.624;23.386;2023-04-25T02:57:48;6.50;;;6.00;;
7917;SDS011;4004;42.624;23.386;2023-04-25T03:00:15;6.27;;;5.67;;
7917;SDS011;4004;42.624;23.386;2023-04-25T03:02:42;7.63;;;6.93;;
7917;SDS011;4004;42.624;23.386;2023-04-25T03:05:10;7.37;;;6.77;;
7917;SDS011;4004;42.624;23.386;2023-04-25T03:07:37;10.60;;;8.33;;
7917;SDS011;4004;42.624;23.386;2023-04-25T03:10:05;10.70;;;9.80;;
7917;SDS011;4004;42.624;23.386;2023-04-25T03:12:32;11.13;;;10.10;;
7917;SDS011;4004;42.624;23.386;2023-04-25T03:14:59;11.47;;;10.43;;
7917;SDS011;4004;42.624;23.386;2023-04-25T03:17:25;11.77;;;10.70;;
7917;SDS011;4004;42.624;23.386;2023-04-25T03:19:52;12.60;;;11.40;;
7917;SDS011;4004;42.624;23.386;2023-04-25T03:22:20;12.87;;;11.77;;
7917;SDS011;4004;42.624;23.386;2023-04-25T03:24:47;16.07;;;12.97;;
7917;SDS011;4004;42.624;23.386;2023-04-25T03:27:14;14.37;;;13.03;;
7917;SDS011;4004;42.624;23.386;2023-04-25T03:29:41;15.80;;;14.17;;
7917;SDS011;4004;42.624;23.386;2023-04-25T03:32:08;15.50;;;14.00;;
7917;SDS011;4004;42.624;23.386;2023-04-25T03:34:35;15.70;;;14.23;;
7917;SDS011;4004;42.624;23.386;2023-04-25T03:37:02;16.77;;;14.83;;
7917;SDS011;4004;42.624;23.386;2023-04-25T03:39:30;14.97;;;12.57;;
7917;SDS011;4004;42.624;23.386;2023-04-25T03:41:56;14.07;;;11.90;;
7917;SDS011;4004;42.624;23.386;2023-04-25T03:44:23;15.07;;;13.70;;
7917;SDS011;4004;42.624;23.386;2023-04-25T03:46:50;13.83;;;12.53;;
7917;SDS011;4004;42.624;23.386;2023-04-25T03:49:17;15.37;;;13.97;;
7917;SDS011;4004;42.624;23.386;2023-04-25T03:51:43;15.93;;;14.43;;
7917;SDS011;4004;42.624;23.386;2023-04-25T03:54:10;15.00;;;13.53;;
7917;SDS011;4004;42.624;23.386;2023-04-25T03:56:38;15.30;;;13.87;;
7917;SDS011;4004;42.624;23.386;2023-04-25T03:59:05;14.30;;;12.80;;
7917;SDS011;4004;42.624;23.386;2023-04-25T04:01:32;11.97;;;10.87;;
7917;SDS011;4004;42.624;23.386;2023-04-25T04:04:00;8.30;;;7.50;;
7917;SDS011;4004;42.624;23.386;2023-04-25T04:06:27;9.97;;;8.97;;
7917;SDS011;4004;42.624;23.386;2023-04-25T04:08:53;14.07;;;10.43;;
7917;SDS011;4004;42.624;23.386;2023-04-25T04:11:20;6.87;;;6.27;;
7917;SDS011;4004;42.624;23.386;2023-04-25T04:13:48;7.60;;;7.00;;
7917;SDS011;4004;42.624;23.386;2023-04-25T04:16:15;8.10;;;6.57;;
7917;SDS011;4004;42.624;23.386;2023-04-25T04:18:42;10.77;;;9.57;;
7917;SDS011;4004;42.624;23.386;2023-04-25T04:21:08;11.17;;;10.23;;
7917;SDS011;4004;42.624;23.386;2023-04-25T04:23:35;12.50;;;10.17;;
7917;SDS011;4004;42.624;23.386;2023-04-25T04:26:02;12.93;;;11.83;;
7917;SDS011;4004;42.624;23.386;2023-04-25T04:28:30;16.13;;;14.57;;
7917;SDS011;4004;42.624;23.386;2023-04-25T04:30:58;16.90;;;15.27;;
7917;SDS011;4004;42.624;23.386;2023-04-25T04:33:26;16.47;;;14.90;;
7917;SDS011;4004;42.624;23.386;2023-04-25T04:35:53;18.77;;;16.83;;
7917;SDS011;4004;42.624;23.386;2023-04-25T04:38:20;17.73;;;16.03;;
7917;SDS011;4004;42.624;23.386;2023-04-25T04:40:47;20.37;;;18.37;;
7917;SDS011;4004;42.624;23.386;2023-04-25T04:43:15;19.53;;;17.63;;
7917;SDS011;4004;42.624;23.386;2023-04-25T04:45:42;21.13;;;19.03;;
7917;SDS011;4004;42.624;23.386;2023-04-25T04:48:11;20.63;;;18.67;;
7917;SDS011;4004;42.624;23.386;2023-04-25T04:50:39;21.70;;;19.70;;
7917;SDS011;4004;42.624;23.386;2023-04-25T04:53:06;21.83;;;19.73;;
7917;SDS011;4004;42.624;23.386;2023-04-25T04:55:33;22.90;;;20.60;;
7917;SDS011;4004;42.624;23.386;2023-04-25T04:58:00;20.80;;;18.60;;
7917;SDS011;4004;42.624;23.386;2023-04-25T05:00:27;19.53;;;17.50;;
7917;SDS011;4004;42.624;23.386;2023-04-25T05:02:54;19.27;;;17.27;;
7917;SDS011;4004;42.624;23.386;2023-04-25T05:05:22;17.20;;;15.40;;
7917;SDS011;4004;42.624;23.386;2023-04-25T05:07:49;16.07;;;14.47;;
7917;SDS011;4004;42.624;23.386;2023-04-25T05:10:16;29.37;;;26.57;;
7917;SDS011;4004;42.624;23.386;2023-04-25T05:12:43;13.70;;;12.40;;
7917;SDS011;4004;42.624;23.386;2023-04-25T05:15:10;15.27;;;12.47;;
7917;SDS011;4004;42.624;23.386;2023-04-25T05:17:37;14.13;;;12.73;;
7917;SDS011;4004;42.624;23.386;2023-04-25T05:20:05;13.00;;;11.80;;
7917;SDS011;4004;42.624;23.386;2023-04-25T05:22:35;11.83;;;10.73;;
7917;SDS011;4004;42.624;23.386;2023-04-25T05:25:02;11.53;;;10.20;;
7917;SDS011;4004;42.624;23.386;2023-04-25T05:27:30;12.40;;;11.13;;
7917;SDS011;4004;42.624;23.386;2023-04-25T05:29:57;10.07;;;9.10;;
7917;SDS011;4004;42.624;23.386;2023-04-25T05:32:24;9.87;;;8.97;;
7917;SDS011;4004;42.624;23.386;2023-04-25T05:34:51;9.00;;;8.20;;
7917;SDS011;4004;42.624;23.386;2023-04-25T05:37:17;8.70;;;7.90;;
7917;SDS011;4004;42.624;23.386;2023-04-25T05:39:46;22.47;;;20.10;;
7917;SDS011;4004;42.624;23.386;2023-04-25T05:42:12;9.60;;;8.60;;
7917;SDS011;4004;42.624;23.386;2023-04-25T05:44:39;9.87;;;9.03;;
7917;SDS011;4004;42.624;23.386;2023-04-25T05:47:06;10.03;;;9.03;;
7917;SDS011;4004;42.624;23.386;2023-04-25T05:49:33;9.57;;;8.67;;
7917;SDS011;4004;42.624;23.386;2023-04-25T05:52:00;9.70;;;8.57;;
7917;SDS011;4004;42.624;23.386;2023-04-25T05:54:26;10.13;;;9.23;;
7917;SDS011;4004;42.624;23.386;2023-04-25T05:56:55;15.33;;;13.83;;
7917;SDS011;4004;42.624;23.386;2023-04-25T05:59:22;11.70;;;10.50;;
7917;SDS011;4004;42.624;23.386;2023-04-25T06:01:49;11.43;;;10.43;;
7917;SDS011;4004;42.624;23.386;2023-04-25T06:04:16;12.27;;;11.07;;
7917;SDS011;4004;42.624;23.386;2023-04-25T06:06:43;11.00;;;9.97;;
7917;SDS011;4004;42.624;23.386;2023-04-25T06:09:10;12.17;;;11.13;;
7917;SDS011;4004;42.624;23.386;2023-04-25T06:11:37;11.60;;;10.60;;
7917;SDS011;4004;42.624;23.386;2023-04-25T06:14:05;11.77;;;10.67;;
7917;SDS011;4004;42.624;23.386;2023-04-25T06:16:32;11.47;;;10.27;;
7917;SDS011;4004;42.624;23.386;2023-04-25T06:18:59;12.13;;;10.53;;
7917;SDS011;4004;42.624;23.386;2023-04-25T06:21:26;11.67;;;10.57;;
7917;SDS011;4004;42.624;23.386;2023-04-25T06:23:52;11.33;;;9.87;;
7917;SDS011;4004;42.624;23.386;2023-04-25T06:26:19;11.97;;;10.80;;
7917;SDS011;4004;42.624;23.386;2023-04-25T06:28:46;12.50;;;10.10;;
7917;SDS011;4004;42.624;23.386;2023-04-25T06:31:14;12.23;;;9.77;;
7917;SDS011;4004;42.624;23.386;2023-04-25T06:33:41;10.87;;;9.93;;
7917;SDS011;4004;42.624;23.386;2023-04-25T06:36:07;71.10;;;21.37;;
7917;SDS011;4004;42.624;23.386;2023-04-25T06:38:34;69.90;;;21.00;;
7917;SDS011;4004;42.624;23.386;2023-04-25T06:41:01;16.80;;;11.07;;
7917;SDS011;4004;42.624;23.386;2023-04-25T06:43:28;9.43;;;8.23;;
7917;SDS011;4004;42.624;23.386;2023-04-25T06:45:58;12.60;;;9.87;;
7917;SDS011;4004;42.624;23.386;2023-04-25T06:48:26;10.67;;;9.57;;
7917;SDS011;4004;42.624;23.386;2023-04-25T06:50:53;8.23;;;7.07;;
7917;SDS011;4004;42.624;23.386;2023-04-25T06:53:21;10.87;;;7.83;;
7917;SDS011;4004;42.624;23.386;2023-04-25T06:55:48;8.30;;;7.50;;
7917;SDS011;4004;42.624;23.386;2023-04-25T06:58:15;9.30;;;6.90;;
7917;SDS011;4004;42.624;23.386;2023-04-25T07:00:41;8.40;;;6.10;;
7917;SDS011;4004;42.624;23.386;2023-04-25T07:03:08;8.33;;;6.47;;
7917;SDS011;4004;42.624;23.386;2023-04-25T07:05:37;8.97;;;6.57;;
7917;SDS011;4004;42.624;23.386;2023-04-25T07:08:04;15.53;;;7.97;;
7917;SDS011;4004;42.624;23.386;2023-04-25T07:10:31;7.47;;;6.57;;
7917;SDS011;4004;42.624;23.386;2023-04-25T07:12:57;9.27;;;7.17;;
7917;SDS011;4004;42.624;23.386;2023-04-25T07:15:24;6.60;;;5.90;;
7917;SDS011;4004;42.624;23.386;2023-04-25T07:17:51;8.10;;;7.30;;
7917;SDS011;4004;42.624;23.386;2023-04-25T07:20:17;9.00;;;7.70;;
7917;SDS011;4004;42.624;23.386;2023-04-25T07:22:45;9.57;;;7.27;;
7917;SDS011;4004;42.624;23.386;2023-04-25T07:25:12;14.47;;;7.63;;
7917;SDS011;4004;42.624;23.386;2023-04-25T07:27:39;13.73;;;9.30;;
7917;SDS011;4004;42.624;23.386;2023-04-25T07:30:06;7.93;;;7.23;;
7917;SDS011;4004;42.624;23.386;2023-04-25T07:32:34;12.33;;;7.30;;
7917;SDS011;4004;42.624;23.386;2023-04-25T07:35:01;7.30;;;6.60;;
7917;SDS011;4004;42.624;23.386;2023-04-25T07:37:28;9.60;;;6.77;;
7917;SDS011;4004;42.624;23.386;2023-04-25T07:39:56;9.80;;;6.90;;
7917;SDS011;4004;42.624;23.386;2023-04-25T07:42:23;8.03;;;7.13;;
7917;SDS011;4004;42.624;23.386;2023-04-25T07:44:50;8.37;;;7.10;;
7917;SDS011;4004;42.624;23.386;2023-04-25T07:47:16;7.77;;;6.80;;
7917;SDS011;4004;42.624;23.386;2023-04-25T07:49:45;6.93;;;6.27;;
7917;SDS011;4004;42.624;23.386;2023-04-25T07:52:11;6.50;;;5.90;;
7917;SDS011;4004;42.624;23.386;2023-04-25T07:54:38;7.03;;;6.43;;
7917;SDS011;4004;42.624;23.386;2023-04-25T07:57:06;6.87;;;6.23;;
7917;SDS011;4004;42.624;23.386;2023-04-25T07:59:33;6.53;;;5.93;;
7917;SDS011;4004;42.624;23.386;2023-04-25T08:02:00;8.50;;;5.90;;
7917;SDS011;4004;42.624;23.386;2023-04-25T08:04:27;8.17;;;5.40;;
7917;SDS011;4004;42.624;23.386;2023-04-25T08:06:54;5.87;;;5.33;;
7917;SDS011;4004;42.624;23.386;2023-04-25T08:09:21;5.87;;;5.33;;
7917;SDS011;4004;42.624;23.386;2023-04-25T08:11:47;10.97;;;6.30;;
7917;SDS011;4004;42.624;23.386;2023-04-25T08:14:16;7.90;;;6.17;;
7917;SDS011;4004;42.624;23.386;2023-04-25T08:16:43;6.67;;;6.00;;
7917;SDS011;4004;42.624;23.386;2023-04-25T08:19:09;6.27;;;5.77;;
7917;SDS011;4004;42.624;23.386;2023-04-25T08:21:37;7.57;;;6.07;;
7917;SDS011;4004;42.624;23.386;2023-04-25T08:24:03;5.60;;;5.10;;
7917;SDS011;4004;42.624;23.386;2023-04-25T08:26:30;9.37;;;5.13;;
7917;SDS011;4004;42.624;23.386;2023-04-25T08:28:58;6.33;;;5.70;;
7917;SDS011;4004;42.624;23.386;2023-04-25T08:31:26;5.63;;;5.00;;
7917;SDS011;4004;42.624;23.386;2023-04-25T08:33:52;9.40;;;4.70;;
7917;SDS011;4004;42.624;23.386;2023-04-25T08:36:19;5.93;;;5.43;;
7917;SDS011;4004;42.624;23.386;2023-04-25T08:38:46;8.87;;;5.03;;
7917;SDS011;4004;42.624;23.386;2023-04-25T08:41:12;5.33;;;4.93;;
7917;SDS011;4004;42.624;23.386;2023-04-25T08:43:41;4.70;;;4.30;;
7917;SDS011;4004;42.624;23.386;2023-04-25T08:46:10;5.90;;;4.70;;
7917;SDS011;4004;42.624;23.386;2023-04-25T08:48:40;4.17;;;3.60;;
7917;SDS011;4004;42.624;23.386;2023-04-25T08:51:08;4.83;;;3.83;;
7917;SDS011;4004;42.624;23.386;2023-04-25T08:53:37;10.63;;;3.90;;
7917;SDS011;4004;42.624;23.386;2023-04-25T08:56:07;11.50;;;4.17;;
7917;SDS011;4004;42.624;23.386;2023-04-25T08:58:38;8.37;;;3.10;;
7917;SDS011;4004;42.624;23.386;2023-04-25T09:01:05;10.00;;;3.13;;
7917;SDS011;4004;42.624;23.386;2023-04-25T09:03:32;8.60;;;3.30;;
7917;SDS011;4004;42.624;23.386;2023-04-25T09:06:00;5.67;;;3.33;;
7917;SDS011;4004;42.624;23.386;2023-04-25T09:08:28;3.00;;;2.70;;
7917;SDS011;4004;42.624;23.386;2023-04-25T09:10:55;4.00;;;2.53;;
7917;SDS011;4004;42.624;23.386;2023-04-25T09:13:24;6.47;;;2.50;;
7917;SDS011;4004;42.624;23.386;2023-04-25T09:15:52;5.90;;;5.00;;
7917;SDS011;4004;42.624;23.386;2023-04-25T09:18:23;6.07;;;5.37;;
7917;SDS011;4004;42.624;23.386;2023-04-25T09:20:51;6.23;;;5.03;;
7917;SDS011;4004;42.624;23.386;2023-04-25T09:23:21;5.27;;;4.67;;
7917;SDS011;4004;42.624;23.386;2023-04-25T09:25:49;6.37;;;4.30;;
7917;SDS011;4004;42.624;23.386;2023-04-25T09:28:16;6.27;;;4.47;;
7917;SDS011;4004;42.624;23.386;2023-04-25T09:30:53;5.17;;;3.50;;
7917;SDS011;4004;42.624;23.386;2023-04-25T09:33:26;5.37;;;3.57;;
7917;SDS011;4004;42.624;23.386;2023-04-25T09:35:56;4.97;;;3.20;;
7917;SDS011;4004;42.624;23.386;2023-04-25T09:38:31;5.10;;;4.10;;
7917;SDS011;4004;42.624;23.386;2023-04-25T09:40:59;10.60;;;4.23;;
7917;SDS011;4004;42.624;23.386;2023-04-25T09:43:26;5.07;;;4.40;;
7917;SDS011;4004;42.624;23.386;2023-04-25T09:45:54;6.77;;;4.60;;
7917;SDS011;4004;42.624;23.386;2023-04-25T09:48:22;5.37;;;4.10;;
7917;SDS011;4004;42.624;23.386;2023-04-25T09:51:03;8.47;;;3.97;;
7917;SDS011;4004;42.624;23.386;2023-04-25T09:53:32;7.13;;;4.20;;
7917;SDS011;4004;42.624;23.386;2023-04-25T09:55:59;4.63;;;3.53;;
7917;SDS011;4004;42.624;23.386;2023-04-25T09:58:27;7.00;;;3.77;;
7917;SDS011;4004;42.624;23.386;2023-04-25T10:00:56;5.30;;;3.77;;
7917;SDS011;4004;42.624;23.386;2023-04-25T10:03:26;8.20;;;4.00;;
7917;SDS011;4004;42.624;23.386;2023-04-25T10:05:57;4.63;;;3.90;;
7917;SDS011;4004;42.624;23.386;2023-04-25T10:08:26;7.83;;;4.27;;
7917;SDS011;4004;42.624;23.386;2023-04-25T10:11:00;4.23;;;3.80;;
7917;SDS011;4004;42.624;23.386;2023-04-25T10:13:28;5.50;;;4.60;;
7917;SDS011;4004;42.624;23.386;2023-04-25T10:15:56;5.10;;;4.67;;
7917;SDS011;4004;42.624;23.386;2023-04-25T10:18:24;5.97;;;4.60;;
7917;SDS011;4004;42.624;23.386;2023-04-25T10:20:51;5.43;;;4.93;;
7917;SDS011;4004;42.624;23.386;2023-04-25T10:23:18;8.67;;;4.70;;
7917;SDS011;4004;42.624;23.386;2023-04-25T10:25:46;6.50;;;4.70;;
7917;SDS011;4004;42.624;23.386;2023-04-25T10:28:15;5.57;;;3.13;;
7917;SDS011;4004;42.624;23.386;2023-04-25T10:30:56;4.23;;;2.30;;
7917;SDS011;4004;42.624;23.386;2023-04-25T10:33:29;1.63;;;1.00;;
7917;SDS011;4004;42.624;23.386;2023-04-25T10:35:58;1.47;;;1.20;;
7917;SDS011;4004;42.624;23.386;2023-04-25T10:38:25;2.20;;;1.60;;
7917;SDS011;4004;42.624;23.386;2023-04-25T10:41:02;2.83;;;1.60;;
7917;SDS011;4004;42.624;23.386;2023-04-25T10:43:34;1.57;;;1.33;;
7917;SDS011;4004;42.624;23.386;2023-04-25T10:46:17;2.10;;;1.50;;
7917;SDS011;4004;42.624;23.386;2023-04-25T10:48:45;3.13;;;2.00;;
7917;SDS011;4004;42.624;23.386;2023-04-25T10:51:21;6.10;;;2.30;;
7917;SDS011;4004;42.624;23.386;2023-04-25T10:53:58;5.37;;;2.23;;
7917;SDS011;4004;42.624;23.386;2023-04-25T10:56:27;3.57;;;2.80;;
7917;SDS011;4004;42.624;23.386;2023-04-25T10:59:08;5.13;;;2.87;;
7917;SDS011;4004;42.624;23.386;2023-04-25T11:01:37;3.27;;;2.83;;
7917;SDS011;4004;42.624;23.386;2023-04-25T11:04:05;2.53;;;2.30;;
7917;SDS011;4004;42.624;23.386;2023-04-25T11:06:46;5.87;;;2.70;;
7917;SDS011;4004;42.624;23.386;2023-04-25T11:09:32;8.03;;;3.07;;
7917;SDS011;4004;42.624;23.386;2023-04-25T11:11:59;8.80;;;3.00;;
7917;SDS011;4004;42.624;23.386;2023-04-25T11:14:28;3.60;;;1.97;;
7917;SDS011;4004;42.624;23.386;2023-04-25T11:16:54;1.80;;;1.50;;
7917;SDS011;4004;42.624;23.386;2023-04-25T11:19:22;1.97;;;1.60;;
7917;SDS011;4004;42.624;23.386;2023-04-25T11:21:49;7.80;;;2.17;;
7917;SDS011;4004;42.624;23.386;2023-04-25T11:24:17;1.40;;;1.30;;
7917;SDS011;4004;42.624;23.386;2023-04-25T11:26:46;2.47;;;1.40;;
7917;SDS011;4004;42.624;23.386;2023-04-25T11:29:13;3.63;;;1.20;;
7917;SDS011;4004;42.624;23.386;2023-04-25T11:31:44;2.53;;;1.93;;
7917;SDS011;4004;42.624;23.386;2023-04-25T11:34:11;5.23;;;2.30;;
7917;SDS011;4004;42.624;23.386;2023-04-25T11:36:42;7.07;;;3.17;;
7917;SDS011;4004;42.624;23.386;2023-04-25T11:39:10;8.10;;;3.07;;
7917;SDS011;4004;42.624;23.386;2023-04-25T11:41:37;4.43;;;2.43;;
7917;SDS011;4004;42.624;23.386;2023-04-25T11:44:04;4.43;;;2.40;;
7917;SDS011;4004;42.624;23.386;2023-04-25T11:46:33;3.73;;;2.53;;
7917;SDS011;4004;42.624;23.386;2023-04-25T11:49:02;5.07;;;3.70;;
7917;SDS011;4004;42.624;23.386;2023-04-25T11:51:29;4.47;;;3.13;;
7917;SDS011;4004;42.624;23.386;2023-04-25T11:53:56;4.90;;;2.67;;
7917;SDS011;4004;42.624;23.386;2023-04-25T11:56:23;3.50;;;2.70;;
7917;SDS011;4004;42.624;23.386;2023-04-25T11:58:56;3.17;;;2.87;;
7917;SDS011;4004;42.624;23.386;2023-04-25T12:01:27;8.13;;;3.50;;
7917;SDS011;4004;42.624;23.386;2023-04-25T12:03:56;2.20;;;1.80;;
7917;SDS011;4004;42.624;23.386;2023-04-25T12:06:27;2.27;;;1.67;;
7917;SDS011;4004;42.624;23.386;2023-04-25T12:09:01;2.07;;;1.60;;
7917;SDS011;4004;42.624;23.386;2023-04-25T12:11:29;6.17;;;2.50;;
7917;SDS011;4004;42.624;23.386;2023-04-25T12:14:01;3.20;;;1.97;;
7917;SDS011;4004;42.624;23.386;2023-04-25T12:16:29;7.93;;;2.50;;
7917;SDS011;4004;42.624;23.386;2023-04-25T12:18:56;6.67;;;2.47;;
7917;SDS011;4004;42.624;23.386;2023-04-25T12:21:29;5.40;;;1.90;;
7917;SDS011;4004;42.624;23.386;2023-04-25T12:24:07;2.50;;;1.27;;
7917;SDS011;4004;42.624;23.386;2023-04-25T12:26:45;1.50;;;1.40;;
7917;SDS011;4004;42.624;23.386;2023-04-25T12:29:17;2.80;;;2.50;;
7917;SDS011;4004;42.624;23.386;2023-04-25T12:31:45;2.13;;;2.00;;
7917;SDS011;4004;42.624;23.386;2023-04-25T12:34:12;2.13;;;1.80;;
7917;SDS011;4004;42.624;23.386;2023-04-25T12:36:40;2.47;;;1.80;;
7917;SDS011;4004;42.624;23.386;2023-04-25T12:39:07;3.97;;;2.10;;
7917;SDS011;4004;42.624;23.386;2023-04-25T12:41:34;2.77;;;2.00;;
7917;SDS011;4004;42.624;23.386;2023-04-25T12:44:00;3.33;;;2.00;;
7917;SDS011;4004;42.624;23.386;2023-04-25T12:46:27;4.30;;;2.43;;
7917;SDS011;4004;42.624;23.386;2023-04-25T12:48:54;2.33;;;1.90;;
7917;SDS011;4004;42.624;23.386;2023-04-25T12:51:21;1.70;;;1.60;;
7917;SDS011;4004;42.624;23.386;2023-04-25T12:53:51;2.03;;;1.57;;
7917;SDS011;4004;42.624;23.386;2023-04-25T12:56:18;2.50;;;1.47;;
7917;SDS011;4004;42.624;23.386;2023-04-25T12:58:45;1.77;;;1.60;;
7917;SDS011;4004;42.624;23.386;2023-04-25T13:01:13;3.17;;;1.53;;
7917;SDS011;4004;42.624;23.386;2023-04-25T13:03:40;3.80;;;1.90;;
7917;SDS011;4004;42.624;23.386;2023-04-25T13:06:07;2.47;;;1.30;;
7917;SDS011;4004;42.624;23.386;2023-04-25T13:08:34;1.77;;;1.47;;
7917;SDS011;4004;42.624;23.386;2023-04-25T13:11:03;4.90;;;1.30;;
7917;SDS011;4004;42.624;23.386;2023-04-25T13:13:30;1.80;;;1.57;;
7917;SDS011;4004;42.624;23.386;2023-04-25T13:15:59;1.53;;;1.37;;
7917;SDS011;4004;42.624;23.386;2023-04-25T13:18:27;1.87;;;1.40;;
7917;SDS011;4004;42.624;23.386;2023-04-25T13:20:53;3.40;;;1.50;;
7917;SDS011;4004;42.624;23.386;2023-04-25T13:23:20;3.77;;;1.70;;
7917;SDS011;4004;42.624;23.386;2023-04-25T13:25:47;2.50;;;1.60;;
7917;SDS011;4004;42.624;23.386;2023-04-25T13:28:15;1.90;;;1.80;;
7917;SDS011;4004;42.624;23.386;2023-04-25T13:30:42;1.63;;;1.53;;
7917;SDS011;4004;42.624;23.386;2023-04-25T13:33:09;2.00;;;1.80;;
7917;SDS011;4004;42.624;23.386;2023-04-25T13:35:37;4.37;;;2.43;;
7917;SDS011;4004;42.624;23.386;2023-04-25T13:38:04;6.77;;;4.23;;
7917;SDS011;4004;42.624;23.386;2023-04-25T13:40:31;2.77;;;2.00;;
7917;SDS011;4004;42.624;23.386;2023-04-25T13:42:58;5.23;;;2.03;;
7917;SDS011;4004;42.624;23.386;2023-04-25T13:45:26;22.27;;;2.30;;
7917;SDS011;4004;42.624;23.386;2023-04-25T13:47:53;6.20;;;2.10;;
7917;SDS011;4004;42.624;23.386;2023-04-25T13:50:20;2.13;;;1.70;;
7917;SDS011;4004;42.624;23.386;2023-04-25T13:52:47;3.40;;;2.97;;
7917;SDS011;4004;42.624;23.386;2023-04-25T13:55:13;3.17;;;2.40;;
7917;SDS011;4004;42.624;23.386;2023-04-25T13:57:40;3.10;;;2.20;;
7917;SDS011;4004;42.624;23.386;2023-04-25T14:00:08;4.67;;;2.30;;
7917;SDS011;4004;42.624;23.386;2023-04-25T14:02:37;2.50;;;2.03;;
7917;SDS011;4004;42.624;23.386;2023-04-25T14:05:04;2.37;;;2.00;;
7917;SDS011;4004;42.624;23.386;2023-04-25T14:07:32;2.20;;;2.00;;
7917;SDS011;4004;42.624;23.386;2023-04-25T14:10:00;3.47;;;2.07;;
7917;SDS011;4004;42.624;23.386;2023-04-25T14:12:27;2.50;;;1.80;;
7917;SDS011;4004;42.624;23.386;2023-04-25T14:14:53;3.13;;;1.60;;
7917;SDS011;4004;42.624;23.386;2023-04-25T14:17:20;3.60;;;2.20;;
7917;SDS011;4004;42.624;23.386;2023-04-25T14:19:49;2.80;;;1.83;;
7917;SDS011;4004;42.624;23.386;2023-04-25T14:22:15;4.33;;;2.60;;
7917;SDS011;4004;42.624;23.386;2023-04-25T14:24:42;2.57;;;2.20;;
7917;SDS011;4004;42.624;23.386;2023-04-25T14:27:09;6.33;;;2.40;;
7917;SDS011;4004;42.624;23.386;2023-04-25T14:29:36;3.73;;;2.20;;
7917;SDS011;4004;42.624;23.386;2023-04-25T14:32:03;4.57;;;2.17;;
7917;SDS011;4004;42.624;23.386;2023-04-25T14:34:31;3.37;;;1.97;;
7917;SDS011;4004;42.624;23.386;2023-04-25T14:36:59;2.60;;;2.40;;
7917;SDS011;4004;42.624;23.386;2023-04-25T14:39:26;1.93;;;1.83;;
7917;SDS011;4004;42.624;23.386;2023-04-25T14:41:53;3.73;;;2.30;;
7917;SDS011;4004;42.624;23.386;2023-04-25T14:44:19;2.43;;;1.93;;
7917;SDS011;4004;42.624;23.386;2023-04-25T14:46:46;2.90;;;1.80;;
7917;SDS011;4004;42.624;23.386;2023-04-25T14:49:13;2.30;;;2.10;;
7917;SDS011;4004;42.624;23.386;2023-04-25T14:51:40;3.13;;;2.07;;
7917;SDS011;4004;42.624;23.386;2023-04-25T14:54:08;2.73;;;2.10;;
7917;SDS011;4004;42.624;23.386;2023-04-25T14:56:36;3.37;;;2.50;;
7917;SDS011;4004;42.624;23.386;2023-04-25T14:59:02;2.90;;;2.37;;